Finchville, KY (40022)

9:59 AM EDT on September 28, 2016 (GMT -0400)
Fox Lair | | Change Station

Elev 728 ft 38.11 °N, 85.38 °W | Updated 34 seconds ago

Overcast
Overcast
62.8 °F
Feels Like 62.8 °F
N
4.9
Wind Variable Wind from SSE
Gusts 7.4 mph

Today
High -- | Low -- °F
--% Chance of Precip.
Yesterday
High -- | Low -- °F
Precip. -- in
Pressure 29.82 in
Visibility 10.0 miles
Clouds Mostly Cloudy 7000 ft
Mostly Cloudy 9500 ft
Mostly Cloudy 12000 ft
Dew Point 28 °F
Humidity 26%
Rainfall 0.00 in
Snow Depth Not available.
7:34 AM 7:27 PM
Waning Crescent, 6% visible
METAR KLOU 281353Z 18003KT 10SM -RA BKN070 BKN095 BKN120 16/12 A2983 RMK AO2 LTG DSNT E RAB11E34B47 TSB15E34 SLP098 P0003 T01560122
Pressure 29.82 in
Visibility 10.0 miles
Clouds Mostly Cloudy 7000 ft
Mostly Cloudy 9500 ft
Mostly Cloudy 12000 ft
Dew Point 28 °F
Humidity 26%
Rainfall 0.00 in
Snow Depth Not available.
7:34 AM 7:27 PM
Waning Crescent, 6% visible
METAR KLOU 281353Z 18003KT 10SM -RA BKN070 BKN095 BKN120 16/12 A2983 RMK AO2 LTG DSNT E RAB11E34B47 TSB15E34 SLP098 P0003 T01560122

10-Day Weather Forecast

Almanac

Astronomy

Sep. 28, 2016 Rise Set
Actual Time
Civil Twilight
Nautical Twilight
Astronomical Twilight
Moon
Length of Visible Light
Length of Day
Tomorrow will be .
, % of the Moon is Illuminated

Today's Extremes

State Highs State Lows

Community

WunderPhotos

Upload Photos

1,942,259 photos uploaded!

WunderBlog® & News

Nearby

Air Quality

  Air Quality AQ Index Pollutant
Not available.

Snow Depth

Station Depth Elevation

Earthquake Activity

City Distance Mag. Time & Date
Minimum magnitude displayed is 2.5.

Coastal Water Temperatures

Place Temperature

Stations

Nearby Weather Stations

Station Location Temp. Windchill Dew Point Humidity Wind Precip. Elev Updated Type
                   

Watches & Warnings

There are currently no watches in effect.